Cognac-Châteaubernard (BA 709) Air Base

LFBG · Charente, Nouvelle-Aquitaine, 法国

METAR的历史 LFBG · Cognac-Châteaubernard (BA 709) Air Base

下面你可以看到过去几天的METARs。 选择年份以浏览从2007年开始的旧METAR。

2022年12月1日

时间 代码 天气 温度 能见度 天花板 METAR/SPECI
11:00
M
8 °C 10 km+ 1.400 ft 010° 010° 10 kt METAR LFBG 011000Z AUTO 01010KT 9999 BKN014 08/04 Q1023 BECMG SCT015 BKN025
10:30
M
8 °C 10 km+ 1.800 ft 010° 010° 8 kt METAR LFBG 010930Z AUTO 01008KT 9999 BKN018 08/05 Q1023 TEMPO BKN008
10:00
M
7 °C 10 km+ 1.800 ft 020° 020° 7 kt METAR LFBG 010900Z AUTO 02007KT 9999 OVC018 07/05 Q1023 TEMPO BKN008
09:30
V
7 °C 10 km+ 4.300 ft 030° 030° 6 kt METAR LFBG 010830Z AUTO 03006KT 9999 SCT019 OVC043 07/05 Q1023 TEMPO BKN007
09:00
V
7 °C 10 km+ 4.300 ft 030° 030° 7 kt METAR LFBG 010800Z AUTO 03007KT 9999 OVC043 07/05 Q1023 NOSIG
08:30
V
6 °C 10 km+ 4.400 ft 020° 020° 6 kt METAR LFBG 010730Z AUTO 02006KT 9999 BKN044 06/05 Q1022 NOSIG
08:00
V
6 °C 9 km - 010° 010° 8 kt METAR LFBG 010700Z AUTO 01008KT 9000 FEW042 06/05 Q1022 NOSIG
07:30
V
7 °C 9 km 4.100 ft 020° 020° 8 kt METAR LFBG 010630Z AUTO 02008KT 9000 OVC041 07/05 Q1022 NOSIG
07:00
V
7 °C 9 km 4.100 ft 030° 030° 7 kt METAR LFBG 010600Z AUTO 03007KT 9000 FEW012 OVC041 07/05 Q1022
06:30
M
6 °C 10 km+ 1.200 ft 040° 040° 8 kt METAR LFBG 010530Z AUTO 04008KT 9999 BKN012 OVC041 06/05 Q1022
06:00
M
6 °C 10 km+ 1.200 ft 030° 030° 8 kt METAR LFBG 010500Z AUTO 03008KT 9999 BKN012 BKN042 06/05 Q1022
05:30
M
6 °C 10 km+ 1.200 ft 030° 030° 6 kt METAR LFBG 010430Z AUTO 03006KT 9999 OVC012 06/04 Q1022
05:00
V
5 °C 10 km+ - 030° 030° 10 kt METAR LFBG 010400Z AUTO 03010KT CAVOK 05/04 Q1022
04:30
V
5 °C 10 km+ - 020° 020° 7 kt METAR LFBG 010330Z AUTO 02007KT CAVOK 05/03 Q1022
04:00
V
5 °C 10 km+ - 030° 030° 10 kt METAR LFBG 010300Z AUTO 03010KT 9999 FEW015 05/03 Q1022
03:30
V
5 °C 10 km+ - 030° 030° 10 kt METAR LFBG 010230Z AUTO 03010KT CAVOK 05/03 Q1022
03:00
V
5 °C 10 km+ - 020° 020° 10 kt METAR LFBG 010200Z AUTO 02010KT CAVOK 05/03 Q1022
02:30
V
6 °C 10 km+ - 020° 020° 9 kt METAR LFBG 010130Z AUTO 02009KT CAVOK 06/03 Q1022
02:00
V
6 °C 10 km+ - 030° 030° 11 kt METAR LFBG 010100Z AUTO 03011KT 9999 FEW025 06/03 Q1022
01:30
M
6 °C 10 km+ 2.500 ft 020° 020° 8 kt METAR LFBG 010030Z AUTO 02008KT 9999 OVC025 06/03 Q1022
01:00
M
6 °C 10 km+ 2.300 ft 030° 030° 8 kt METAR LFBG 010000Z AUTO 03008KT 9999 OVC023 06/03 Q1022
00:30
M
6 °C 10 km+ 2.200 ft 040° 040° 8 kt METAR LFBG 302330Z AUTO 04008KT 9999 BKN022 06/03 Q1022
00:00
V
6 °C 10 km+ - 040° 040° 8 kt METAR LFBG 302300Z AUTO 04008KT CAVOK 06/03 Q1022

2022年11月30日

时间 代码 天气 温度 能见度 天花板 METAR/SPECI
23:30
V
6 °C 10 km+ - 030° 030° 11 kt METAR LFBG 302230Z AUTO 03011KT CAVOK 06/03 Q1022
23:00
V
6 °C 10 km+ - 030° 030° 11 kt METAR LFBG 302200Z AUTO 03011KT CAVOK 06/03 Q1022
22:30
V
6 °C 10 km+ - 040° 040° 9 kt METAR LFBG 302130Z AUTO 04009KT CAVOK 06/03 Q1021
22:00
V
7 °C 10 km+ - 030° 030° 12 kt METAR LFBG 302100Z AUTO 03012KT CAVOK 07/03 Q1021
21:30
V
7 °C 10 km+ - 020° 020° 9 kt METAR LFBG 302030Z AUTO 02009KT CAVOK 07/04 Q1021
21:00
V
7 °C 10 km+ - 030° 030° 9 kt METAR LFBG 302000Z AUTO 03009KT 9999 FEW034 07/05 Q1021
20:30
V
7 °C 10 km+ 3.400 ft 030° 030° 11 kt METAR LFBG 301930Z AUTO 03011KT 9999 BKN034 07/05 Q1021
20:00
V
7 °C 10 km+ 3.700 ft 030° 030° 10 kt METAR LFBG 301900Z AUTO 03010KT 9999 BKN037 07/05 Q1020
19:30
V
7 °C 10 km+ - 030° 030° 10 kt METAR LFBG 301830Z AUTO 03010KT 9999 FEW036 07/05 Q1020
19:00
V
8 °C 10 km+ - 030° 030° 11 kt METAR LFBG 301800Z AUTO 03011KT CAVOK 08/05 Q1020
18:30
V
8 °C 10 km+ - 030° 030° 10 kt METAR LFBG 301730Z AUTO 03010KT CAVOK 08/05 Q1020
18:00
V
8 °C 10 km+ - 020° 020° 7 kt METAR LFBG 301700Z AUTO 02007KT 9999 FEW036 08/05 Q1019 NOSIG
17:30
V
8 °C 10 km+ - 020° 020° 8 kt METAR LFBG 301630Z AUTO 02008KT CAVOK 08/05 Q1019 NOSIG
17:00
V
9 °C 10 km+ - 030° 030° 8 kt METAR LFBG 301600Z AUTO 03008KT CAVOK 09/05 Q1019 NOSIG
16:30
V
9 °C 10 km+ - 040° 040° 9 kt METAR LFBG 301530Z AUTO 04009KT CAVOK 09/05 Q1019 NOSIG
16:00
V
9 °C 10 km+ - 050° 050° 8 kt METAR LFBG 301500Z AUTO 05008KT 9999 FEW022 09/05 Q1019 NOSIG
15:30
V
9 °C 10 km+ - 050° 050° 9 kt METAR LFBG 301430Z AUTO 05009KT CAVOK 09/05 Q1019 TEMPO BKN008
15:00
M
9 °C 10 km+ 1.600 ft 060° 060° 11 kt METAR LFBG 301400Z AUTO 06011KT 9999 BKN016 09/05 Q1019 TEMPO BKN008
14:30
M
8 °C 10 km+ 1.500 ft 050° 050° 10 kt METAR LFBG 301330Z AUTO 05010KT 9999 BKN015 08/05 Q1020 TEMPO BKN008
14:00
V
9 °C 10 km+ - 040° 040° 11 kt METAR LFBG 301300Z AUTO 04011KT 010V070 9999 FEW016 09/05 Q1020 TEMPO BKN008
13:30
V
9 °C 10 km+ - 050° 050° 10 kt METAR LFBG 301230Z AUTO 05010KT 9999 SCT015 09/06 Q1020 TEMPO BKN008
13:00
V
9 °C 10 km+ - 040° 040° 10 kt METAR LFBG 301200Z AUTO 04010KT 9999 FEW014 09/05 Q1020 TEMPO BKN008
12:30
V
8 °C 10 km+ - 040° 040° 10 kt METAR LFBG 301130Z AUTO 04010KT 9999 SCT012 08/05 Q1020 TEMPO BKN008
12:00
V
8 °C 10 km+ - 050° 050° 10 kt METAR LFBG 301100Z AUTO 05010KT 9999 FEW014 08/05 Q1020 TEMPO BKN008
11:30
V
8 °C 10 km+ - 060° 060° 7 kt METAR LFBG 301030Z AUTO 06007KT 9999 FEW007 08/06 Q1021 TEMPO BKN008
11:00
I
7 °C 10 km+ 600 ft 030° 030° 7 kt METAR LFBG 301000Z AUTO 03007KT 9999 BKN006 07/06 Q1021 BECMG BKN012
10:30
I
7 °C 10 km+ 500 ft 070° 070° 6 kt METAR LFBG 300930Z AUTO 07006KT 9999 BKN005 07/06 Q1021 BECMG BKN012
10:00
I
6 °C 10 km+ 500 ft 050° 050° 8 kt METAR LFBG 300900Z AUTO 05008KT 9999 BKN005 06/06 Q1020 BECMG BKN012
09:30
I
6 °C 10 km+ 600 ft 050° 050° 5 kt METAR LFBG 300830Z AUTO 05005KT 9999 OVC006 06/06 Q1020 TEMPO OVC003
09:00
I
6 °C 10 km+ 700 ft 050° 050° 3 kt METAR LFBG 300800Z AUTO 05003KT 9999 BKN007 06/06 Q1020 BECMG OVC003
08:30
I
6 °C 10 km+ 800 ft 070° 070° 3 kt METAR LFBG 300730Z AUTO 07003KT 040V100 9999 OVC008 06/06 Q1020 BECMG OVC003
08:00
I
6 °C 4 km 600 ft 060° 060° 3 kt METAR LFBG 300700Z AUTO 06003KT 4000 BR OVC006 06/06 Q1020 TEMPO VV/// BECMG 5000 NSW
07:30
L
6 °C 5 km 200 ft 090° 090° 4 kt METAR LFBG 300630Z AUTO 09004KT 5000 BR BKN002 OVC008 06/06 Q1020 TEMPO 0800 FG VV///
07:00
L
6 °C 5 km 200 ft 080° 080° 3 kt METAR LFBG 300600Z AUTO 08003KT 5000 BR BKN002 OVC008 06/06 Q1020 TEMPO 0800 FG VV///
06:30
L
6 °C 6 km 400 ft 070° 070° 3 kt METAR LFBG 300530Z AUTO 07003KT 6000 BKN004 OVC008 06/06 Q1020
06:00
L
6 °C 7 km 300 ft 070° 070° 5 kt METAR LFBG 300500Z AUTO 07005KT 040V100 7000 OVC003 06/06 Q1020
05:30
L
6 °C 5 km - 080° 080° 4 kt METAR LFBG 300430Z AUTO 08004KT 5000 BR VV/// 06/06 Q1020
05:00
L
6 °C 2,8 km - 090° 090° 5 kt METAR LFBG 300400Z AUTO 09005KT 2800 BR VV/// 06/06 Q1020
04:30
L
6 °C 1,3 km - 110° 110° 5 kt METAR LFBG 300330Z AUTO 11005KT 2000 1300 R23/P2000 BR VV/// 06/06 Q1020
04:00
L
6 °C 1,3 km - 100° 100° 5 kt METAR LFBG 300300Z AUTO 10005KT 1400 1300 R23/1100U BCFG VV/// 06/06 Q1020
03:30
L
6 °C 800 m - 080° 080° 6 kt METAR LFBG 300230Z AUTO 08006KT 0800 R23/1400N FG VV/// 06/06 Q1020
03:00
L
6 °C 450 m - Var Var 3 kt METAR LFBG 300200Z AUTO VRB03KT 0450 R23///// FG VV/// 06/06 Q1020
02:30
L
6 °C 650 m - 060° 060° 3 kt METAR LFBG 300130Z AUTO 06003KT 1100 0650 R23/1200D BCFG VV/// 06/06 Q1020
02:00
L
6 °C 650 m - Var 000° 0 kt METAR LFBG 300100Z AUTO 00000KT 1000 0650 R23/0750N BCFG VV/// 06/06 Q1020
01:30
L
6 °C 650 m - Var 000° 0 kt METAR LFBG 300030Z AUTO 00000KT 1300 0650 R23/0800N BCFG VV/// 06/06 Q1021
01:00
L
6 °C 450 m - 040° 040° 2 kt METAR LFBG 300000Z AUTO 04002KT 0450 R23/0500N FG VV/// 06/06 Q1021
00:30
L
6 °C 300 m - Var Var 2 kt METAR LFBG 292330Z AUTO VRB02KT 0300 R23/0375N FG VV/// 06/06 Q1021
00:00
L
7 °C 400 m - Var Var 2 kt METAR LFBG 292300Z AUTO VRB02KT 0400 R23/0450D FG VV/// 07/07 Q1021

2022年11月29日

时间 代码 天气 温度 能见度 天花板 METAR/SPECI
23:30
L
7 °C 350 m - 080° 080° 3 kt METAR LFBG 292230Z AUTO 08003KT 0400 0350 R23/0450D FG VV/// 07/07 Q1021
23:00
L
7 °C 400 m - Var Var 3 kt METAR LFBG 292200Z AUTO VRB03KT 0450 0400 R23///// FG VV/// 07/07 Q1021
22:30
L
7 °C 3,5 km - 160° 160° 2 kt METAR LFBG 292130Z AUTO 16002KT 3500 BR VV/// 07/07 Q1021
22:00
L
7 °C 1 km - Var Var 1 kt METAR LFBG 292100Z AUTO VRB01KT 1100 1000 R23/1500U BR VV/// 07/07 Q1021
21:30
L
7 °C 900 m - Var Var 3 kt METAR LFBG 292030Z AUTO VRB03KT 1300 0900 R23/P2000 BCFG VV/// 07/07 Q1021
21:00
L
7 °C 550 m - Var 000° 0 kt METAR LFBG 292000Z AUTO 00000KT 0600 0550 R23/0800U FG VV/// 07/07 Q1021
20:30
L
6 °C 500 m - 100° 100° 2 kt METAR LFBG 291930Z AUTO 10002KT 0500 R23/0600N FG VV/// 06/06 Q1021
20:00
L
6 °C 400 m - Var Var 2 kt METAR LFBG 291900Z AUTO VRB02KT 0450 0400 R23/0550N FG VV/// 06/06 Q1021
19:30
L
6 °C 450 m - Var Var 2 kt METAR LFBG 291830Z AUTO VRB02KT 0450 R23/0550N FG VV/// 06/06 Q1021
19:00
L
6 °C 500 m - 120° 120° 2 kt METAR LFBG 291800Z AUTO 12002KT 0550 0500 R23/0600N FG VV/// 06/06 Q1021
18:30
L
7 °C 400 m - 090° 090° 4 kt METAR LFBG 291730Z AUTO 09004KT 0400 R23/0500N FG VV/// 07/07 Q1021
18:00
L
7 °C 400 m - 100° 100° 3 kt METAR LFBG 291700Z AUTO 10003KT 0400 R23/0600U FG VV/// 07/07 Q1021 NOSIG
17:30
L
7 °C 350 m - 070° 070° 3 kt METAR LFBG 291630Z AUTO 07003KT 0400 0350 R23/0450N FG VV/// 07/07 Q1021 BECMG 9999 NSW SCT005 SCT012
17:00
L
8 °C 2,3 km - 070° 070° 2 kt METAR LFBG 291600Z AUTO 07002KT 8000 2300 VV/// 08/07 Q1020 BECMG SCT005 SCT012
16:30
V
8 °C 10 km+ - 050° 050° 3 kt METAR LFBG 291530Z AUTO 05003KT 9999 FEW003 08/08 Q1020 NOSIG
16:00
V
9 °C 10 km+ - 040° 040° 3 kt METAR LFBG 291500Z AUTO 04003KT 9999 FEW003 09/08 Q1020 NOSIG
15:30
L
9 °C 10 km+ 300 ft Var Var 2 kt METAR LFBG 291430Z AUTO VRB02KT 9999 BKN003 09/08 Q1020 BECMG SCT015
15:00
L
9 °C 10 km+ 200 ft 050° 050° 3 kt METAR LFBG 291400Z AUTO 05003KT 020V100 9999 BKN002 09/08 Q1020 BECMG SCT015
14:30
L
9 °C 8 km 300 ft Var Var 3 kt METAR LFBG 291330Z AUTO VRB03KT 8000 OVC003 09/08 Q1020 BECMG SCT015
14:00
L
8 °C 1,2 km - Var Var 2 kt METAR LFBG 291300Z AUTO VRB02KT 2200 1200 R23/1600D BR VV/// 08/08 Q1020 BECMG 9999 NSW SCT015
13:30
L
8 °C 550 m - Var Var 1 kt METAR LFBG 291230Z AUTO VRB01KT 0800 0550 R23/1000D FG VV/// 08/08 Q1020 BECMG 9999 NSW SCT015
13:00
L
7 °C 1,3 km - Var 000° 0 kt METAR LFBG 291200Z AUTO 00000KT 1300 R23/1700N BCFG VV/// 07/07 Q1021 BECMG 9999 NSW SCT015
12:30
L
7 °C 300 m - Var Var 3 kt METAR LFBG 291130Z AUTO VRB03KT 0400 0300 R23/0400N FG VV/// 07/07 Q1021 BECMG 9999 NSW SCT015
12:00
L
6 °C 450 m - Var 000° 0 kt METAR LFBG 291100Z AUTO 00000KT 0450 R23/0600N FG VV/// 06/06 Q1021 BECMG 9999 NSW SCT015
11:30
L
5 °C 250 m - Var Var 1 kt METAR LFBG 291030Z AUTO VRB01KT 0300 0250 R23/0550U FG VV/// 05/05 Q1021 BECMG 9999 NSW SCT015
11:00
L
4 °C 300 m - Var 000° 0 kt METAR LFBG 291000Z AUTO 00000KT 0350 0300 R23/0500D FG VV/// 04/04 Q1021 BECMG 9999 NSW SCT015

我们和第三方通过cookies跟踪您在我们网站上的互联网行为。如果你继续,我们认为你同意我们的饼干政策